Time;durP1;ratioP1;P1;durP2;ratioP2;P2;SDS_P1;SDS_P2;PMS_P1;PMS_P2;Temp;Humidity;BMP_temperature;BMP_pressure;BME280_temperature;BME280_humidity;BME280_pressure;Samples;Min_cycle;Max_cycle;Signal;HPM_P1;HPM_P2
2022/10/11 00:02:29;;;;;;;20.87;4.20;;;;;;;15.38;87.12;99123.91;4844311;28;20289;-85
2022/10/11 00:05:02;;;;;;;15.70;3.23;;;;;;;15.31;85.54;99107.56;4842691;28;20337;-84
2022/10/11 00:07:33;;;;;;;15.93;3.47;;;;;;;15.09;83.83;99050.84;4861521;28;20308;-86
2022/10/11 00:10:04;;;;;;;21.70;4.23;;;;;;;15.51;82.37;99124.91;4864917;28;20285;-86
2022/10/11 00:12:38;;;;;;;20.47;3.57;;;;;;;15.41;82.44;99087.72;4847005;28;20466;-86
2022/10/11 00:15:12;;;;;;;17.60;3.37;;;;;;;15.13;81.89;99024.38;4852189;28;20504;-86
2022/10/11 00:17:43;;;;;;;16.10;3.53;;;;;;;15.53;81.01;99097.56;4847960;28;20270;-85
2022/10/11 00:20:15;;;;;;;14.87;3.70;;;;;;;15.50;81.15;99097.75;4850608;28;20290;-86
2022/10/11 00:22:48;;;;;;;16.60;3.43;;;;;;;15.39;80.17;99084.31;4858987;28;20285;-86
2022/10/11 00:25:19;;;;;;;15.37;2.80;;;;;;;15.35;80.82;99064.38;4841709;28;20294;-86
2022/10/11 00:27:52;;;;;;;22.37;3.63;;;;;;;15.32;80.97;99035.56;4848391;28;21471;-86
2022/10/11 00:30:22;;;;;;;17.00;3.80;;;;;;;15.79;79.48;99097.09;4832284;28;20296;-85
2022/10/11 00:32:53;;;;;;;12.60;3.13;;;;;;;15.44;78.89;99021.72;4848105;28;20266;-86
2022/10/11 00:35:24;;;;;;;19.57;3.23;;;;;;;15.58;79.24;99028.88;4864757;28;20323;-85
2022/10/11 00:37:58;;;;;;;12.73;3.13;;;;;;;16.00;78.48;99100.28;4851128;28;20305;-85
2022/10/11 00:40:32;;;;;;;19.33;3.67;;;;;;;15.78;77.60;99069.91;4851134;28;20315;-87
2022/10/11 00:43:16;;;;;;;14.20;2.97;;;;;;;15.69;76.85;99070.38;4851863;28;20475;-86
2022/10/11 00:46:03;;;;;;;11.30;2.93;;;;;;;15.63;78.04;99076.00;4852840;28;20292;-86
2022/10/11 00:48:40;;;;;;;13.27;3.40;;;;;;;15.60;77.94;99092.81;4849475;28;20498;-85
2022/10/11 00:51:19;;;;;;;13.30;2.77;;;;;;;15.13;78.61;99053.34;4850465;28;20290;-86
2022/10/11 00:53:52;;;;;;;13.80;2.97;;;;;;;15.33;78.72;99121.50;4855695;28;20274;-85
2022/10/11 00:56:27;;;;;;;15.57;3.00;;;;;;;14.89;79.46;99085.25;4858237;28;20137;-86
2022/10/11 00:59:03;;;;;;;17.17;3.13;;;;;;;14.81;79.99;99109.34;4865011;28;20292;-86
2022/10/11 01:01:34;;;;;;;15.73;3.20;;;;;;;14.64;81.33;99102.31;4850842;28;20301;-86
2022/10/11 01:04:06;;;;;;;18.80;4.50;;;;;;;14.29;81.78;99050.69;4846260;28;20281;-85
2022/10/11 01:06:37;;;;;;;17.57;3.37;;;;;;;14.25;81.62;99036.84;4863800;28;20285;-85
2022/10/11 01:09:09;;;;;;;12.67;3.03;;;;;;;14.56;82.14;99078.22;4858894;28;20348;-86
2022/10/11 01:11:43;;;;;;;15.10;3.37;;;;;;;14.69;82.20;99101.25;4854007;28;20261;-85
2022/10/11 01:14:38;;;;;;;12.80;3.13;;;;;;;14.78;82.49;99087.63;4867562;28;20364;-85
2022/10/11 01:17:20;;;;;;;16.43;3.17;;;;;;;14.49;82.43;99033.88;4849064;28;20300;-86
2022/10/11 01:20:29;;;;;;;14.50;3.37;;;;;;;14.60;81.93;99047.34;4854687;28;20292;-87
2022/10/11 01:23:25;;;;;;;18.73;4.32;;;;;;;14.73;80.84;99047.56;4844712;28;20278;-86
2022/10/11 01:26:29;;;;;;;14.80;3.93;;;;;;;14.45;80.95;99022.66;4843416;28;20061;-86
2022/10/11 01:29:13;;;;;;;16.00;4.17;;;;;;;14.71;81.00;99049.44;4832891;28;20268;-86
2022/10/11 01:31:52;;;;;;;16.70;3.87;;;;;;;14.63;80.61;99058.56;4853565;28;20288;-85
2022/10/11 01:34:32;;;;;;;18.52;3.20;;;;;;;14.24;79.76;99014.97;4846814;28;20341;-86
2022/10/11 01:37:06;;;;;;;21.17;3.97;;;;;;;14.26;79.89;99037.72;4849504;28;20050;-85
2022/10/11 01:39:42;;;;;;;18.57;3.80;;;;;;;14.43;80.30;99053.47;4854458;28;20376;-85
2022/10/11 01:42:15;;;;;;;14.57;3.33;;;;;;;14.26;80.28;99040.34;4850271;28;20657;-85
2022/10/11 01:44:49;;;;;;;19.37;3.63;;;;;;;14.41;80.57;99060.56;4850616;28;20786;-85
2022/10/11 01:47:23;;;;;;;21.67;3.70;;;;;;;14.43;81.30;99056.09;4854186;28;20646;-86
2022/10/11 01:49:58;;;;;;;20.67;3.77;;;;;;;14.30;81.14;99057.63;4854834;28;20290;-86
2022/10/11 01:52:32;;;;;;;17.10;3.77;;;;;;;13.73;80.31;98961.56;4863152;28;20289;-85
2022/10/11 01:55:18;;;;;;;18.77;4.10;;;;;;;14.08;80.46;99008.81;4860981;28;20291;-85
2022/10/11 01:58:06;;;;;;;19.83;4.00;;;;;;;14.37;80.93;99061.66;4852869;28;20273;-85
2022/10/11 02:00:50;;;;;;;17.87;4.17;;;;;;;14.13;80.51;99043.59;4845305;28;20258;-86
2022/10/11 02:03:35;;;;;;;25.23;4.83;;;;;;;13.43;81.36;98957.78;4846600;28;20666;-86
2022/10/11 02:06:12;;;;;;;18.60;4.10;;;;;;;13.19;81.72;98949.34;4849840;28;20269;-85
2022/10/11 02:08:49;;;;;;;22.73;3.70;;;;;;;13.21;82.83;98992.94;4845631;28;20265;-86
2022/10/11 02:11:23;;;;;;;21.40;3.70;;;;;;;13.43;83.69;99057.50;4860489;28;20287;-86
2022/10/11 02:13:59;;;;;;;16.03;3.20;;;;;;;12.84;83.72;98986.78;4869063;28;20371;-86
2022/10/11 02:16:37;;;;;;;19.63;3.87;;;;;;;12.76;83.81;98999.38;4849041;28;20288;-86
2022/10/11 02:19:13;;;;;;;16.90;3.33;;;;;;;13.05;84.11;99057.50;4859293;28;20296;-85
2022/10/11 02:21:48;;;;;;;18.47;3.63;;;;;;;12.47;85.17;98983.19;4852205;28;20470;-85
2022/10/11 02:24:23;;;;;;;15.37;3.13;;;;;;;12.62;86.37;99015.72;4865960;28;20305;-86
2022/10/11 02:26:56;;;;;;;15.35;2.78;;;;;;;12.29;87.13;98989.25;4852538;28;20347;-85
2022/10/11 02:29:32;;;;;;;11.95;2.67;;;;;;;12.48;87.79;99021.59;4858377;28;20042;-86
2022/10/11 02:32:03;;;;;;;10.90;2.08;;;;;;;12.14;88.16;98976.81;4848486;28;20052;-85
2022/10/11 02:34:39;;;;;;;13.07;3.08;;;;;;;12.41;89.22;99045.50;4862182;28;20137;-87
2022/10/11 02:37:17;;;;;;;17.50;2.88;;;;;;;12.25;90.24;99029.56;4852798;28;20063;-86
2022/10/11 02:39:54;;;;;;;17.85;3.15;;;;;;;12.31;91.57;99029.31;4859177;28;20172;-86
2022/10/11 02:42:31;;;;;;;10.32;2.35;;;;;;;11.94;91.79;98973.28;4841452;28;20054;-87
2022/10/11 02:45:07;;;;;;;11.07;2.63;;;;;;;11.98;91.82;98958.28;4841534;28;20078;-88
2022/10/11 02:47:38;;;;;;;15.00;2.72;;;;;;;11.80;91.98;98938.97;4858981;28;20068;-87
2022/10/11 02:50:12;;;;;;;12.23;2.70;;;;;;;12.15;92.39;98971.50;4861898;28;20060;-86
2022/10/11 02:52:43;;;;;;;19.25;2.35;;;;;;;12.23;92.33;98963.31;4856315;28;20057;-87
2022/10/11 02:55:14;;;;;;;9.18;1.63;;;;;;;12.28;92.57;98979.66;4862642;28;20050;-86
2022/10/11 02:57:45;;;;;;;13.60;2.35;;;;;;;12.07;92.43;98940.41;4864775;28;20053;-86
2022/10/11 03:00:17;;;;;;;10.68;2.55;;;;;;;12.24;92.69;98949.31;4861530;28;20062;-87
2022/10/11 03:02:48;;;;;;;8.90;2.00;;;;;;;11.82;92.88;98887.41;4857032;28;20119;-89
2022/10/11 03:05:21;;;;;;;12.20;2.08;;;;;;;11.66;92.63;98869.75;4857725;28;20050;-88
2022/10/11 03:07:52;;;;;;;9.73;1.83;;;;;;;11.68;92.90;98881.91;4843239;28;20043;-90
2022/10/11 03:10:22;;;;;;;9.02;1.92;;;;;;;11.47;92.93;98858.38;4859853;28;20055;-86
2022/10/11 03:12:53;;;;;;;7.57;1.65;;;;;;;11.94;92.68;98931.41;4859912;28;20042;-88
2022/10/11 03:15:25;;;;;;;10.27;1.70;;;;;;;11.41;92.55;98828.09;4858105;28;20069;-88
2022/10/11 03:17:56;;;;;;;7.85;1.60;;;;;;;12.07;92.50;98948.28;4857950;28;20081;-88
2022/10/11 03:20:29;;;;;;;5.65;1.80;;;;;;;11.71;92.45;98861.72;4857662;28;20049;-88
2022/10/11 03:23:00;;;;;;;10.10;2.50;;;;;;;11.59;92.38;98817.75;4853490;28;20291;-87
2022/10/11 03:25:31;;;;;;;12.02;2.03;;;;;;;11.71;92.62;98835.53;4843887;28;20365;-87
2022/10/11 03:28:02;;;;;;;10.80;1.88;;;;;;;12.11;93.10;98848.66;4850153;28;20073;-86
2022/10/11 03:30:33;;;;;;;8.93;1.73;;;;;;;12.31;92.92;98866.94;4853521;28;20049;-87
2022/10/11 03:33:04;;;;;;;11.38;2.45;;;;;;;12.40;93.12;98856.00;4846945;28;20065;-86
2022/10/11 03:35:37;;;;;;;4.68;1.45;;;;;;;12.64;92.87;98863.66;4854298;28;20129;-84
2022/10/11 03:38:08;;;;;;;8.98;1.75;;;;;;;12.49;93.21;98790.09;4844971;28;20090;-87
2022/10/11 03:40:42;;;;;;;11.00;3.42;;;;;;;12.93;93.05;98829.03;4835926;28;20053;-87
2022/10/11 03:43:14;;;;;;;5.82;1.60;;;;;;;13.35;92.14;98892.59;4843076;28;20275;-85
2022/10/11 03:45:45;;;;;;;7.07;1.60;;;;;;;13.05;90.94;98838.06;4854497;28;20065;-86
2022/10/11 03:48:16;;;;;;;12.43;2.00;;;;;;;13.38;90.19;98874.09;4851796;28;20353;-86
2022/10/11 03:50:49;;;;;;;10.57;2.40;;;;;;;13.03;89.38;98834.69;4857430;28;20109;-86
2022/10/11 03:53:20;;;;;;;14.43;2.50;;;;;;;13.04;88.99;98843.41;4850513;28;20047;-87
2022/10/11 03:55:54;;;;;;;8.50;2.08;;;;;;;13.21;88.44;98900.28;4857131;28;20046;-87
2022/10/11 03:58:25;;;;;;;9.05;2.35;;;;;;;12.90;89.48;98881.63;4862230;28;20058;-87
2022/10/11 04:00:56;;;;;;;7.70;2.03;;;;;;;12.87;89.77;98897.47;4864291;28;20140;-86
2022/10/11 04:03:28;;;;;;;11.52;2.25;;;;;;;12.59;90.21;98870.91;4852744;28;20117;-84
2022/10/11 04:06:00;;;;;;;12.65;2.35;;;;;;;12.17;91.07;98796.00;4851943;28;20282;-87
2022/10/11 04:08:32;;;;;;;9.70;2.25;;;;;;;12.72;91.62;98853.66;4840089;28;20054;-86
2022/10/11 04:11:03;;;;;;;9.55;1.88;;;;;;;12.86;91.18;98858.25;4850914;28;20397;-86
2022/10/11 04:13:34;;;;;;;11.38;2.35;;;;;;;13.11;91.67;98871.03;4844956;28;20059;-85
2022/10/11 04:16:05;;;;;;;10.25;2.15;;;;;;;13.09;91.09;98834.38;4850300;28;20387;-86
2022/10/11 04:18:37;;;;;;;11.50;2.10;;;;;;;12.76;89.77;98753.00;4854493;28;20073;-86
2022/10/11 04:21:09;;;;;;;16.25;2.75;;;;;;;13.30;89.25;98801.00;4851043;28;20330;-85
2022/10/11 04:23:40;;;;;;;11.73;2.38;;;;;;;13.67;88.69;98851.59;4848851;28;20051;-87
2022/10/11 04:26:13;;;;;;;14.23;2.30;;;;;;;13.67;87.93;98841.09;4852276;28;20042;-86
2022/10/11 04:28:44;;;;;;;13.13;2.83;;;;;;;13.56;87.60;98818.03;4848677;28;20094;-84
2022/10/11 04:31:15;;;;;;;12.88;2.50;;;;;;;13.31;86.04;98823.69;4844813;28;20053;-86
2022/10/11 04:33:46;;;;;;;11.43;1.90;;;;;;;12.83;86.34;98790.22;4849221;28;20117;-86
2022/10/11 04:36:18;;;;;;;13.10;2.90;;;;;;;12.74;86.45;98779.28;4850200;28;20072;-86
2022/10/11 04:38:55;;;;;;;12.25;2.47;;;;;;;12.84;86.71;98821.63;4863346;28;20059;-83
2022/10/11 04:41:25;;;;;;;13.90;1.90;;;;;;;12.57;87.08;98799.38;4858973;28;20059;-86
2022/10/11 04:43:56;;;;;;;13.85;3.42;;;;;;;12.12;87.59;98735.16;4858564;28;20285;-86
2022/10/11 04:46:27;;;;;;;18.33;3.20;;;;;;;12.70;88.05;98863.38;4857092;28;20057;-86
2022/10/11 04:48:58;;;;;;;15.18;2.58;;;;;;;12.44;88.03;98841.88;4849574;28;20471;-87
2022/10/11 04:51:32;;;;;;;19.15;3.75;;;;;;;11.93;88.93;98782.25;4847307;28;20085;-85
2022/10/11 04:54:03;;;;;;;12.27;2.13;;;;;;;12.21;89.98;98849.94;4841226;28;20306;-85
2022/10/11 04:56:37;;;;;;;15.20;2.50;;;;;;;12.25;89.86;98872.44;4858186;28;20038;-85
2022/10/11 04:59:08;;;;;;;8.75;2.03;;;;;;;12.20;90.09;98890.13;4856503;28;20050;-84
2022/10/11 05:01:39;;;;;;;9.05;2.50;;;;;;;11.86;90.62;98854.97;4846658;28;20098;-85
2022/10/11 05:04:10;;;;;;;12.88;2.50;;;;;;;11.82;91.26;98856.00;4831258;28;20062;-83
2022/10/11 05:06:43;;;;;;;11.82;2.50;;;;;;;11.87;92.08;98883.69;4852339;28;20278;-83
2022/10/11 05:09:14;;;;;;;8.32;1.92;;;;;;;11.62;92.79;98877.78;4866804;28;20070;-85
2022/10/11 05:11:52;;;;;;;9.15;2.10;;;;;;;11.55;93.60;98861.50;4838738;28;20360;-83
2022/10/11 05:14:23;;;;;;;15.73;2.50;;;;;;;11.65;94.13;98894.19;4847483;28;20082;-84
2022/10/11 05:16:55;;;;;;;7.82;2.22;;;;;;;11.45;94.57;98875.88;4836350;28;20070;-86
2022/10/11 05:19:26;;;;;;;14.35;2.55;;;;;;;11.48;95.37;98899.28;4834162;28;20335;-87
2022/10/11 05:22:00;;;;;;;11.18;2.55;;;;;;;11.16;95.61;98849.22;4834755;28;20050;-85
2022/10/11 05:24:33;;;;;;;13.30;2.33;;;;;;;11.38;95.70;98885.78;4834391;28;20047;-84
2022/10/11 05:27:04;;;;;;;12.45;2.90;;;;;;;10.72;95.65;98770.84;4832964;28;20054;-82
2022/10/11 05:29:34;;;;;;;14.63;3.08;;;;;;;11.40;95.66;98877.84;4843381;28;20050;-83
2022/10/11 05:32:06;;;;;;;10.32;2.65;;;;;;;11.29;95.80;98869.63;4828146;28;20058;-84
2022/10/11 05:34:36;;;;;;;6.90;1.98;;;;;;;11.44;96.23;98880.28;4827378;28;20050;-83
2022/10/11 05:37:09;;;;;;;5.65;1.67;;;;;;;11.33;96.10;98850.25;4837409;28;20046;-84
2022/10/11 05:39:40;;;;;;;6.25;1.73;;;;;;;11.56;96.44;98884.16;4827228;28;20051;-83
2022/10/11 05:42:11;;;;;;;7.25;1.60;;;;;;;11.50;96.01;98858.22;4846953;28;20047;-83
2022/10/11 05:44:41;;;;;;;7.95;2.20;;;;;;;11.48;96.04;98844.38;4843577;28;20109;-83
2022/10/11 05:47:12;;;;;;;6.65;1.42;;;;;;;11.32;95.81;98809.34;4844076;28;20105;-84
2022/10/11 05:49:43;;;;;;;9.27;2.00;;;;;;;11.60;95.22;98853.47;4827760;28;20057;-83
2022/10/11 05:52:19;;;;;;;8.43;2.17;;;;;;;11.00;95.25;98764.47;4840818;28;20067;-83
2022/10/11 05:54:50;;;;;;;7.40;1.92;;;;;;;10.91;95.06;98759.66;4803809;28;20107;-84
2022/10/11 05:57:21;;;;;;;7.95;1.75;;;;;;;11.60;94.87;98859.53;4820587;28;20055;-83
2022/10/11 05:59:51;;;;;;;8.95;1.65;;;;;;;11.19;94.35;98790.72;4836552;28;20051;-83
2022/10/11 06:02:22;;;;;;;8.52;2.00;;;;;;;11.52;94.48;98861.63;4836397;28;20053;-84
2022/10/11 06:04:56;;;;;;;6.95;1.40;;;;;;;11.34;94.38;98842.34;4837666;28;20126;-84
2022/10/11 06:07:28;;;;;;;7.18;1.80;;;;;;;11.30;94.80;98856.47;4833319;28;20081;-84
2022/10/11 06:10:05;;;;;;;8.38;1.45;;;;;;;11.31;95.00;98857.34;4844140;28;20074;-84
2022/10/11 06:12:37;;;;;;;3.30;1.30;;;;;;;11.09;94.92;98821.63;4816203;28;20381;-83
2022/10/11 06:15:09;;;;;;;3.58;1.33;;;;;;;11.09;94.73;98816.38;4837333;28;20381;-84
2022/10/11 06:17:43;;;;;;;5.75;1.00;;;;;;;11.26;94.78;98851.41;4838087;28;20127;-83
2022/10/11 06:20:17;;;;;;;6.20;1.38;;;;;;;11.05;94.51;98835.72;4852398;28;20047;-83
2022/10/11 06:22:50;;;;;;;7.60;1.50;;;;;;;10.63;94.25;98781.66;4856519;28;20053;-83
2022/10/11 06:25:21;;;;;;;5.18;1.25;;;;;;;11.20;94.22;98882.13;4853501;28;20076;-84
2022/10/11 06:27:52;;;;;;;7.82;1.38;;;;;;;10.53;94.56;98786.44;4869931;28;20049;-83
2022/10/11 06:30:23;;;;;;;6.43;1.00;;;;;;;10.49;94.72;98773.56;4871342;28;20041;-83
2022/10/11 06:32:54;;;;;;;5.97;1.27;;;;;;;10.96;94.89;98862.25;4870008;28;20117;-83
2022/10/11 06:35:30;;;;;;;4.13;1.15;;;;;;;11.05;95.28;98880.16;4865429;28;20063;-83
2022/10/11 06:38:02;;;;;;;8.82;1.30;;;;;;;10.50;95.42;98801.34;4872772;28;20099;-83
2022/10/11 06:40:33;;;;;;;4.55;1.10;;;;;;;11.03;95.33;98871.50;4870736;28;20058;-83
2022/10/11 06:43:06;;;;;;;5.05;1.77;;;;;;;10.60;95.45;98792.25;4869297;28;20145;-82
2022/10/11 06:45:38;;;;;;;4.53;1.40;;;;;;;10.68;95.68;98807.59;4869006;28;20046;-83
2022/10/11 06:48:09;;;;;;;6.25;1.35;;;;;;;11.07;95.78;98873.09;4867051;28;20212;-80
2022/10/11 06:50:41;;;;;;;4.05;1.20;;;;;;;11.04;96.11;98854.94;4873862;28;20065;-81
2022/10/11 06:53:30;;;;;;;3.85;1.20;;;;;;;10.60;96.38;98792.25;4855408;28;20054;-81
2022/10/11 06:56:06;;;;;;;5.95;1.52;;;;;;;10.55;96.21;98773.28;4852564;28;20100;-81
2022/10/11 06:58:40;;;;;;;3.75;2.75;;;;;;;11.17;96.27;98865.75;4867232;28;20050;-81
2022/10/11 07:01:17;;;;;;;4.72;1.40;;;;;;;11.13;96.09;98870.25;4845865;28;20065;-80
2022/10/11 07:03:49;;;;;;;8.25;2.40;;;;;;;10.80;96.42;98831.47;4866542;28;20041;-81
2022/10/11 07:06:21;;;;;;;6.60;3.08;;;;;;;10.44;96.23;98775.50;4865531;28;20059;-82
2022/10/11 07:08:55;;;;;;;5.05;1.98;;;;;;;11.09;96.59;98881.72;4866496;28;20105;-81
2022/10/11 07:11:28;;;;;;;3.03;1.20;;;;;;;11.09;96.64;98884.34;4853021;28;20033;-81
2022/10/11 07:14:01;;;;;;;4.07;0.90;;;;;;;10.67;96.75;98819.81;4864404;28;20199;-82
2022/10/11 07:16:32;;;;;;;1.75;0.98;;;;;;;10.53;96.85;98798.63;4860361;28;20080;-83
2022/10/11 07:19:05;;;;;;;3.22;0.90;;;;;;;10.65;97.06;98832.09;4867788;28;20042;-81
2022/10/11 07:21:38;;;;;;;5.55;1.30;;;;;;;10.42;96.83;98813.88;4870199;28;20138;-81
2022/10/11 07:24:14;;;;;;;7.05;0.90;;;;;;;10.88;97.03;98906.09;4859181;28;20061;-81
2022/10/11 07:26:46;;;;;;;2.78;1.00;;;;;;;10.24;97.28;98816.25;4868417;28;20100;-79
2022/10/11 07:29:17;;;;;;;3.67;1.27;;;;;;;10.31;97.33;98833.41;4869395;28;20092;-79
2022/10/11 07:31:51;;;;;;;3.13;1.00;;;;;;;10.63;97.69;98890.53;4870333;28;20109;-80
2022/10/11 07:34:22;;;;;;;4.80;1.08;;;;;;;10.67;97.86;98902.56;4869204;28;20346;-80
2022/10/11 07:36:54;;;;;;;8.27;1.63;;;;;;;10.47;98.07;98864.16;4850276;28;20042;-79
2022/10/11 07:39:31;;;;;;;4.22;1.50;;;;;;;10.21;98.17;98842.47;4869260;28;20046;-79
2022/10/11 07:42:02;;;;;;;5.25;1.60;;;;;;;10.56;98.41;98889.94;4856202;28;20176;-80
2022/10/11 07:44:34;;;;;;;2.80;1.30;;;;;;;10.23;98.56;98824.97;4869618;28;20062;-80
2022/10/11 07:47:05;;;;;;;7.05;1.50;;;;;;;10.17;98.45;98834.81;4865517;28;20045;-79
2022/10/11 07:49:43;;;;;;;6.47;1.63;;;;;;;10.58;98.52;98912.47;4865123;28;20294;-79
2022/10/11 07:52:14;;;;;;;5.20;1.73;;;;;;;10.56;98.78;98916.91;4868064;28;20050;-79
2022/10/11 07:54:49;;;;;;;6.30;1.95;;;;;;;10.54;98.59;98917.88;4868635;28;20233;-80
2022/10/11 07:57:21;;;;;;;6.30;1.90;;;;;;;10.29;98.59;98897.88;4863069;28;20085;-80
2022/10/11 07:59:52;;;;;;;7.78;2.28;;;;;;;9.72;98.38;98823.41;4867762;28;20057;-80
2022/10/11 08:02:23;;;;;;;7.75;2.38;;;;;;;10.00;98.98;98879.78;4869363;28;20054;-80
2022/10/11 08:04:55;;;;;;;5.70;2.05;;;;;;;10.32;99.03;98931.72;4867051;28;20163;-79
2022/10/11 08:07:27;;;;;;;5.85;2.33;;;;;;;9.70;99.29;98830.41;4869861;28;20215;-80
2022/10/11 08:10:00;;;;;;;5.55;2.10;;;;;;;9.58;98.81;98836.91;4874977;28;20078;-79
2022/10/11 08:12:32;;;;;;;9.27;2.40;;;;;;;10.05;99.02;98917.00;4849542;28;20086;-79
2022/10/11 08:15:03;;;;;;;7.22;3.08;;;;;;;10.15;99.05;98952.31;4865863;28;20069;-80
2022/10/11 08:17:34;;;;;;;6.57;2.85;;;;;;;10.11;99.41;98950.75;4860318;28;20045;-79
2022/10/11 08:20:06;;;;;;;9.73;3.88;;;;;;;9.69;99.60;98891.31;4856889;28;20056;-79
2022/10/11 08:22:38;;;;;;;9.73;4.43;;;;;;;9.74;99.79;98910.28;4848316;28;20089;-79
2022/10/11 08:25:11;;;;;;;11.73;4.65;;;;;;;9.90;99.72;98955.78;4852799;28;20055;-79
2022/10/11 08:28:06;;;;;;;7.47;3.08;;;;;;;10.04;100.00;98993.63;4845190;28;20133;-79
2022/10/11 08:30:43;;;;;;;9.98;3.60;;;;;;;9.91;100.00;98975.75;4854882;28;20042;-79
2022/10/11 08:33:24;;;;;;;8.88;2.95;;;;;;;9.89;100.00;99023.69;4837627;28;20302;-79
2022/10/11 08:36:36;;;;;;;3.38;1.00;;;;;;;9.82;96.60;99056.94;4843064;28;20114;-79
2022/10/11 08:39:22;;;;;;;3.33;1.48;;;;;;;8.98;93.83;98952.72;4820190;28;20087;-80
2022/10/11 08:41:59;;;;;;;5.53;1.30;;;;;;;9.31;92.30;99026.44;4855336;28;20076;-82
2022/10/11 08:44:41;;;;;;;5.50;1.73;;;;;;;9.23;90.55;99038.81;4844810;28;20042;-82
2022/10/11 08:47:37;;;;;;;3.78;1.60;;;;;;;9.17;89.51;99044.22;4833044;28;20049;-81
2022/10/11 09:22:23;;;;;;;4.20;1.40;;;;;;;8.27;88.13;99056.25;4597620;29;20392;-81
2022/10/11 09:25:12;;;;;;;6.13;1.70;;;;;;;8.17;89.20;99034.81;4649524;29;24985;-81
2022/10/11 09:27:51;;;;;;;4.50;1.60;;;;;;;7.78;89.99;98984.69;4660370;29;20246;-81
2022/10/11 09:30:42;;;;;;;3.45;1.42;;;;;;;8.02;90.80;99035.22;4648017;29;20047;-81
2022/10/11 09:33:18;;;;;;;5.65;1.30;;;;;;;8.12;91.36;99052.31;4662370;29;20091;-82
2022/10/11 09:35:52;;;;;;;2.03;1.00;;;;;;;8.05;92.01;99061.16;4673542;29;20067;-80
2022/10/11 09:38:40;;;;;;;6.47;1.30;;;;;;;7.80;91.93;99018.47;4751189;29;20049;-80
2022/10/11 09:41:17;;;;;;;3.58;1.05;;;;;;;7.92;92.05;99054.56;4751208;29;20051;-79
2022/10/11 09:43:52;;;;;;;4.15;1.10;;;;;;;7.29;92.49;98954.72;4731521;29;20552;-81
2022/10/11 09:46:31;;;;;;;4.95;1.23;;;;;;;7.35;92.48;98947.59;4783473;29;20087;-80
2022/10/11 09:49:04;;;;;;;2.95;1.05;;;;;;;7.25;92.13;98943.53;4762200;29;20051;-82
2022/10/11 09:51:39;;;;;;;2.65;1.08;;;;;;;7.65;91.69;99015.34;4793110;29;20137;-81
2022/10/11 09:54:43;;;;;;;5.50;1.02;;;;;;;7.33;92.15;98967.56;4768787;29;20058;-81
2022/10/11 09:57:28;;;;;;;2.45;1.20;;;;;;;7.27;92.70;98962.53;4780702;29;20203;-82
2022/10/11 10:00:20;;;;;;;6.13;1.08;;;;;;;7.06;92.88;98937.06;4789423;29;20065;-83
2022/10/11 10:02:53;;;;;;;1.95;0.95;;;;;;;7.55;92.92;99013.84;4793308;29;20451;-84
2022/10/11 10:05:35;;;;;;;3.08;1.40;;;;;;;7.68;93.33;99012.66;4775659;29;20047;-83
2022/10/11 10:08:32;;;;;;;3.15;1.77;;;;;;;7.73;93.43;99022.94;4782613;29;20061;-83
2022/10/11 10:11:42;;;;;;;4.40;1.10;;;;;;;7.23;93.24;98966.09;4790841;29;20075;-82
2022/10/11 10:14:48;;;;;;;3.85;1.45;;;;;;;7.13;93.20;98960.25;4774703;29;20052;-83
2022/10/11 10:17:52;;;;;;;4.72;1.13;;;;;;;7.48;93.08;99038.28;4805615;29;20404;-82
2022/10/11 10:20:34;;;;;;;6.40;1.40;;;;;;;7.59;92.69;99077.88;4786077;29;20063;-82
2022/10/11 10:23:38;;;;;;;4.15;1.10;;;;;;;7.56;92.44;99072.75;4786700;29;20240;-83
2022/10/11 10:26:32;;;;;;;2.10;0.90;;;;;;;7.60;91.51;99069.19;4775121;29;20043;-82
2022/10/11 10:30:01;;;;;;;3.28;1.17;;;;;;;7.38;90.39;99036.78;4757793;29;20059;-81
2022/10/11 10:33:23;;;;;;;;;;;;;;;;;;;;;
2022/10/11 10:37:02;;;;;;;;;;;;;;;;;;;;;
2022/10/11 10:43:35;;;;;;;13.65;4.50;;;;;;;7.38;90.13;99153.72;4753298;29;20052;-80
2022/10/11 10:46:37;;;;;;;7.20;2.67;;;;;;;7.01;90.33;99090.41;4745235;29;20056;-82
2022/10/11 10:53:27;;;;;;;17.88;5.68;;;;;;;6.08;90.03;99037.69;4731012;29;20060;-81
2022/10/11 10:56:32;;;;;;;9.25;3.90;;;;;;;6.68;90.76;99146.44;4749397;29;20120;-81
2022/10/11 10:59:40;;;;;;;9.63;3.43;;;;;;;6.72;91.54;99155.06;4750651;29;20052;-80
2022/10/11 11:02:36;;;;;;;7.45;3.13;;;;;;;6.21;92.12;99071.16;4771550;29;20116;-81
2022/10/11 11:05:27;;;;;;;11.55;3.97;;;;;;;6.65;91.89;99149.09;4756257;29;20064;-80
2022/10/11 11:08:12;;;;;;;9.73;3.33;;;;;;;5.75;91.91;99011.44;4747226;29;20044;-80
2022/10/11 11:10:50;;;;;;;9.27;3.63;;;;;;;6.58;91.93;99147.50;4750126;29;20129;-80
2022/10/11 11:13:34;;;;;;;6.72;3.10;;;;;;;5.83;91.54;99069.19;4751608;29;20264;-80
2022/10/11 11:16:20;;;;;;;7.95;2.90;;;;;;;6.19;91.71;99168.03;4747474;29;20409;-81
2022/10/11 11:18:59;;;;;;;9.30;5.88;;;;;;;6.04;92.24;99177.78;4731715;29;20316;-81
2022/10/11 11:21:41;;;;;;;6.15;3.10;;;;;;;5.47;93.12;99092.22;4752989;29;20083;-83
2022/10/11 11:24:24;;;;;;;9.07;2.50;;;;;;;5.82;93.43;99158.22;4748606;29;20060;-83
2022/10/11 11:27:04;;;;;;;6.70;2.90;;;;;;;5.56;93.55;99122.31;4743002;29;20052;-82
2022/10/11 11:29:48;;;;;;;8.02;3.88;;;;;;;5.76;93.77;99150.53;4758718;29;20059;-81
2022/10/11 11:32:35;;;;;;;6.78;3.47;;;;;;;5.97;94.08;99180.50;4751827;29;20063;-81
2022/10/11 11:35:15;;;;;;;13.07;4.57;;;;;;;6.01;94.17;99192.53;4767562;29;20057;-80
2022/10/11 11:37:49;;;;;;;13.27;4.88;;;;;;;6.19;94.05;99225.09;4774445;29;20071;-80
2022/10/11 11:40:34;;;;;;;9.85;4.65;;;;;;;5.46;93.91;99094.81;4764581;29;20048;-80
2022/10/11 11:43:09;;;;;;;9.80;4.78;;;;;;;6.03;94.16;99207.19;4755345;29;20113;-80
2022/10/11 11:45:48;;;;;;;13.90;5.10;;;;;;;5.33;94.09;99120.03;4757017;29;21603;-80
2022/10/11 11:48:23;;;;;;;14.23;4.18;;;;;;;5.92;94.25;99214.25;4767259;29;20083;-80
2022/10/11 11:51:01;;;;;;;13.82;4.40;;;;;;;5.61;93.88;99173.19;4741965;29;20045;-82
2022/10/11 11:53:49;;;;;;;9.05;3.78;;;;;;;5.99;94.36;99235.78;4744355;29;20081;-80
2022/10/11 11:56:28;;;;;;;8.52;3.70;;;;;;;5.71;94.18;99189.47;4746753;29;20308;-81
2022/10/11 11:59:18;;;;;;;16.60;4.72;;;;;;;5.58;94.26;99169.78;4764166;29;20378;-84
2022/10/11 12:01:53;;;;;;;;;;;;;;;5.94;94.27;99233.28;4745431;29;20244;-84
2022/10/11 12:04:42;;;;;;;9.77;4.10;;;;;;;5.03;94.24;99104.03;4758416;29;20180;-83
2022/10/11 12:07:16;;;;;;;10.38;4.95;;;;;;;5.93;94.51;99252.25;4763701;29;20116;-82
2022/10/11 12:09:56;;;;;;;8.60;3.67;;;;;;;5.94;94.61;99243.63;4774551;29;20396;-83
2022/10/11 12:12:36;;;;;;;5.70;3.80;;;;;;;5.62;94.38;99198.25;4757064;29;20446;-84
2022/10/11 12:15:22;;;;;;;7.82;4.22;;;;;;;5.94;94.23;99246.25;4733215;29;20059;-84
2022/10/11 12:18:31;;;;;;;8.10;2.97;;;;;;;5.89;94.78;99245.41;4750973;29;20578;-84
2022/10/11 12:21:43;;;;;;;9.48;3.67;;;;;;;5.11;95.50;99106.50;4743160;29;20101;-84
2022/10/11 12:25:24;;;;;;;9.00;2.33;;;;;;;5.41;97.31;99124.22;4772962;29;20084;-86
2022/10/11 12:32:27;;;;;;;12.45;3.80;;;;;;;6.03;96.32;99212.38;4745056;29;20047;-84
2022/10/11 12:35:51;;;;;;;11.65;3.72;;;;;;;6.37;95.94;99262.91;4747653;29;20044;-85
2022/10/11 12:38:27;;;;;;;12.05;3.70;;;;;;;5.93;95.73;99205.56;4737314;29;20114;-85
2022/10/11 12:42:10;;;;;;;;;;;;;;;;;;;;;
2022/10/11 12:57:46;;;;;;;16.63;3.13;;;;;;;4.92;96.42;99113.66;4635224;29;20218;-84
2022/10/11 13:01:12;;;;;;;12.10;3.17;;;;;;;5.23;97.62;99134.84;4625016;30;20052;-84
2022/10/11 13:03:58;;;;;;;9.85;3.38;;;;;;;5.80;97.72;99230.81;4693220;29;20048;-84
2022/10/11 13:06:38;;;;;;;12.20;2.95;;;;;;;5.89;98.35;99219.47;4748780;29;20066;-84
2022/10/11 13:09:28;;;;;;;14.70;2.78;;;;;;;5.43;98.28;99157.03;4748974;29;21123;-84
2022/10/11 13:12:14;;;;;;;9.90;2.50;;;;;;;5.66;98.64;99216.34;4753349;29;20305;-84
2022/10/11 13:15:08;;;;;;;7.28;2.30;;;;;;;6.41;98.44;99343.25;4749760;29;20055;-84
2022/10/11 13:17:59;;;;;;;7.47;2.58;;;;;;;6.00;98.62;99248.72;4749570;29;20051;-84
2022/10/11 13:20:48;;;;;;;8.23;3.00;;;;;;;6.58;99.28;99342.16;4799183;28;20052;-85
2022/10/11 13:23:42;;;;;;;10.00;3.40;;;;;;;5.81;99.21;99205.75;4830565;28;20060;-86
2022/10/11 13:26:38;;;;;;;8.50;3.58;;;;;;;6.19;98.88;99271.78;4812880;28;20042;-84
2022/10/11 13:29:17;;;;;;;10.32;4.15;;;;;;;6.24;98.65;99289.03;4842981;28;20038;-84